Latest Weather Observations for The Monument

IDQ60801

Issued at 5:05 pm EST Tuesday 22 July 2014 (issued every 30 minutes, with the page automatically refreshed every 10 minutes)

About weather observations | Map of weather stations | Latest weather observations for QLD | Other Formats
Station Details ID: 037034 Name: THE MONUMENT AIRPORT Lat: -21.81 Lon: 139.93 Height: 288.4 m
Data from the previous 72 hours. | See also: Recent months at The Monument
Date/Time
EST
Temp
°C
App
Temp
°C
Dew
Point
Rel
Hum
%
Delta-T
°C
Wind Press
QNH
hPa
Press
MSL
hPa
Rain
since 9 am
mm
Dir
 
Spd
km/h
Gust
km/h
Spd
kts
Gust
kts
22/05:00pm 24.9 18.8 -7.5 11 13.1 SSE 17 24 9 13 1017.3 1016.9 0.0
22/04:30pm 25.0 19.0 -6.3 12 13.0 SE 17 24 9 13 1017.3 - 0.0
22/04:00pm 25.2 18.8 -7.3 11 13.2 SSE 19 35 10 19 1017.3 1016.9 0.0
22/03:30pm 25.4 19.0 -7.2 11 13.4 SE 19 26 10 14 1017.4 - 0.0
22/03:00pm 25.2 18.8 -7.3 11 13.2 SE 19 26 10 14 1017.7 1017.3 0.0
22/02:30pm 25.7 20.5 -5.8 12 13.3 ESE 13 24 7 13 1018.0 - 0.0
22/02:00pm 25.2 18.9 -6.2 12 13.1 SE 19 30 10 16 1018.3 1017.9 0.0
22/01:30pm 24.7 18.7 -6.6 12 12.9 SE 17 30 9 16 1018.6 - 0.0
22/01:00pm 24.2 17.6 -7.0 12 12.7 SE 20 24 11 13 1019.3 1019.0 0.0
22/12:30pm 24.1 17.5 -7.0 12 12.6 ESE 20 32 11 17 1020.0 - 0.0
22/12:00pm 22.9 16.5 -6.9 13 11.9 SE 19 28 10 15 1020.8 1020.4 0.0
22/11:30am 22.5 16.5 -6.3 14 11.6 SE 17 24 9 13 1021.4 - 0.0
22/11:00am 20.9 14.4 -7.6 14 11.0 ESE 19 24 10 13 1021.8 1021.4 0.0
22/10:30am 19.7 13.7 -6.8 16 10.3 ESE 17 24 9 13 1022.1 - 0.0
22/10:00am 17.6 12.8 -6.3 19 9.2 ESE 11 17 6 9 1022.2 1021.8 0.0
22/09:30am 15.6 11.1 -7.2 20 8.4 SE 9 13 5 7 1022.3 - 0.0
22/09:00am 12.7 8.5 -7.3 24 7.1 S 7 9 4 5 1022.1 1021.7 0.0
22/08:30am 10.5 7.3 -6.8 29 6.1 SSW 2 7 1 4 1021.9 - 0.0
22/08:00am 7.0 2.9 -6.7 37 4.6 WSW 7 7 4 4 1021.5 1021.1 0.0
22/07:30am 5.8 1.4 -5.8 43 3.9 W 9 9 5 5 1021.3 - 0.0
22/07:00am 4.2 0.1 -6.7 45 3.5 WNW 7 7 4 4 1021.0 1020.6 0.0
22/06:30am 5.4 1.3 -6.2 43 3.8 WNW 7 7 4 4 1020.8 - 0.0
22/06:00am 4.7 2.0 -5.9 46 3.5 CALM 0 6 0 3 1020.5 1020.1 0.0
22/05:30am 4.1 0.1 -7.9 41 3.7 W 6 6 3 3 1020.2 - 0.0
22/05:00am 5.2 1.1 -7.0 41 3.9 WNW 7 7 4 4 1020.5 1020.1 0.0
22/04:30am 7.1 2.7 -6.2 38 4.5 WNW 9 9 5 5 1020.6 - 0.0
22/04:00am 6.6 2.6 -5.4 42 4.1 NW 7 9 4 5 1020.6 1020.2 0.0
22/03:30am 6.4 2.5 -4.4 46 3.8 NNW 7 7 4 4 1020.6 - 0.0
22/03:00am 6.7 3.3 -5.0 43 4.1 W 4 6 2 3 1020.8 1020.4 0.0
22/02:30am 8.4 5.8 -5.4 37 4.9 CALM 0 0 0 0 1020.9 - 0.0
22/02:00am 7.5 4.9 -5.2 40 4.4 CALM 0 0 0 0 1020.8 1020.4 0.0
22/01:30am 8.2 5.7 -3.9 42 4.4 CALM 0 0 0 0 1020.8 - 0.0
22/01:00am 8.6 6.2 -3.3 43 4.4 CALM 0 0 0 0 1020.8 1020.4 0.0
22/12:30am 9.4 7.0 -3.5 40 4.8 CALM 0 0 0 0 1020.7 - 0.0
22/12:00am 11.5 7.9 -3.8 34 5.8 SSW 6 7 3 4 1020.8 1020.4 0.0
 
Date/Time
EST
Temp
°C
App
Temp
°C
Dew
Point
Rel
Hum
%
Delta-T
°C
Wind Press
QNH
hPa
Press
MSL
hPa
Rain
since 9 am
mm
Dir
 
Spd
km/h
Gust
km/h
Spd
kts
Gust
kts
21/11:30pm 9.8 7.3 -4.2 37 5.2 CALM 0 0 0 0 1021.0 - 0.0
21/11:00pm 10.6 6.6 -5.8 31 5.9 SSW 7 9 4 5 1021.1 1020.7 0.0
21/10:30pm 12.3 8.0 -5.2 29 6.5 SSW 9 9 5 5 1021.2 - 0.0
21/10:00pm 12.8 10.3 -3.9 31 6.4 CALM 0 0 0 0 1021.0 1020.6 0.0
21/09:30pm 12.7 10.1 -5.3 28 6.7 CALM 0 0 0 0 1021.0 - 0.0
21/09:00pm 14.8 11.3 -3.0 29 7.1 S 6 9 3 5 1020.9 1020.5 0.0
21/08:30pm 16.8 12.7 -3.3 25 8.2 SSW 9 9 5 5 1020.9 - 0.0
21/08:00pm 18.2 13.7 -3.2 23 8.8 S 11 13 6 7 1020.8 1020.4 0.0
21/07:30pm 19.5 14.7 -2.8 22 9.4 S 13 19 7 10 1020.4 - 0.0
21/07:00pm 20.1 15.3 -2.9 21 9.7 S 13 17 7 9 1019.9 1019.6 0.0
21/06:30pm 21.2 16.8 -2.6 20 10.2 S 11 17 6 9 1019.7 - 0.0
21/06:00pm 22.9 18.1 -2.6 18 11.1 S 13 20 7 11 1019.4 1019.1 0.0
21/05:30pm 24.0 18.7 -3.3 16 11.9 S 15 22 8 12 1019.1 - 0.0
21/05:00pm 24.5 18.5 -2.9 16 12.0 S 19 28 10 15 1018.9 1018.5 0.0
21/04:30pm 24.8 18.8 -2.7 16 12.2 S 19 26 10 14 1018.7 - 0.0
21/04:00pm 24.8 18.3 -5.5 13 12.7 SSW 20 30 11 16 1018.7 1018.3 0.0
21/03:30pm 24.6 18.1 -5.6 13 12.7 S 20 32 11 17 1018.8 - 0.0
21/03:00pm 24.9 18.6 -5.4 13 12.7 SW 19 26 10 14 1018.8 1018.4 0.0
21/02:30pm 25.0 19.0 -6.3 12 13.0 S 17 22 9 12 1018.9 - 0.0
21/02:00pm 23.9 18.2 -7.2 12 12.5 S 15 26 8 14 1019.2 1018.8 0.0
21/01:30pm 24.3 18.2 -8.0 11 12.9 SSW 17 22 9 12 1019.6 - 0.0
21/01:00pm 22.8 18.2 -8.1 12 12.1 S 9 15 5 8 1020.1 1019.8 0.0
21/12:30pm 22.7 18.5 -8.1 12 12.1 SW 7 13 4 7 1020.6 - 0.0
21/12:00pm 21.9 17.6 -8.8 12 11.7 SW 7 11 4 6 1020.9 1020.5 0.0
21/11:30am 21.5 16.8 -9.1 12 11.6 SE 9 13 5 7 1021.4 - 0.0
21/11:00am 21.2 16.2 -8.3 13 11.3 E 11 15 6 8 1021.4 1021.0 0.0
21/10:30am 20.7 16.7 -7.7 14 11.0 ESE 6 11 3 6 1021.5 - 0.0
21/10:00am 17.7 13.8 -6.2 19 9.2 ESE 6 9 3 5 1021.7 1021.3 0.0
21/09:30am 15.4 12.7 -6.2 22 8.1 CALM 0 6 0 3 1021.8 - 0.0
21/09:00am 12.2 9.4 -7.2 25 6.9 CALM 0 0 0 0 1021.7 1021.3 0.0
21/08:30am 9.3 6.4 -7.8 29 5.8 CALM 0 0 0 0 1021.5 - 0.0
21/08:00am 6.5 2.2 -8.6 33 4.8 WNW 7 9 4 5 1021.3 1020.9 0.0
21/07:30am 3.3 -1.1 -10.0 37 4.1 W 7 9 4 5 1021.2 - 0.0
21/07:00am 4.5 -0.3 -10.0 34 4.3 W 9 9 5 5 1021.0 1020.6 0.0
21/06:30am 4.7 -0.1 -10.2 33 4.4 WSW 9 11 5 6 1020.8 - 0.0
21/06:00am 4.3 0.0 -9.1 37 4.1 S 7 7 4 4 1020.5 1020.1 0.0
21/05:30am 3.7 -0.3 -8.0 42 3.6 S 6 6 3 3 1020.2 - 0.0
21/05:00am 4.1 -0.2 -8.9 38 3.9 S 7 7 4 4 1020.4 1020.0 0.0
21/04:30am 5.6 2.6 -9.0 34 4.5 CALM 0 0 0 0 1020.1 - 0.0
21/04:00am 5.0 2.1 -7.8 39 4.0 CALM 0 0 0 0 1019.9 1019.6 0.0
21/03:30am 5.1 2.0 -10.2 32 4.6 CALM 0 0 0 0 1019.8 - 0.0
21/03:00am 6.4 3.4 -9.5 31 4.9 CALM 0 0 0 0 1019.8 1019.5 0.0
21/02:30am 5.8 2.8 -9.6 32 4.7 CALM 0 0 0 0 1020.0 - 0.0
21/02:00am 6.1 3.1 -9.3 32 4.8 CALM 0 0 0 0 1020.0 1019.7 0.0
21/01:30am 7.7 3.5 -9.6 28 5.5 S 6 7 3 4 1019.9 - 0.0
21/01:00am 6.5 3.5 -9.4 31 4.9 CALM 0 0 0 0 1020.1 1019.8 0.0
21/12:30am 8.7 4.6 -8.3 29 5.6 S 6 7 3 4 1020.4 - 0.0
21/12:00am 8.5 4.2 -9.4 27 5.7 S 7 9 4 5 1020.5 1020.1 0.0
 
Date/Time
EST
Temp
°C
App
Temp
°C
Dew
Point
Rel
Hum
%
Delta-T
°C
Wind Press
QNH
hPa
Press
MSL
hPa
Rain
since 9 am
mm
Dir
 
Spd
km/h
Gust
km/h
Spd
kts
Gust
kts
20/11:30pm 11.1 6.5 -7.7 26 6.5 S 9 11 5 6 1020.6 - 0.0
20/11:00pm 10.1 5.8 -8.5 26 6.2 S 7 9 4 5 1020.8 1020.4 0.0
20/10:30pm 11.9 7.3 -8.5 23 7.0 S 9 11 5 6 1020.9 - 0.0
20/10:00pm 13.0 8.3 -8.8 21 7.5 S 9 11 5 6 1020.9 1020.5 0.0
20/09:30pm 13.1 8.1 -8.7 21 7.6 S 11 13 6 7 1020.8 - 0.0
20/09:00pm 13.3 8.7 -8.5 21 7.6 S 9 11 5 6 1020.6 1020.2 0.0
20/08:30pm 13.8 9.1 -9.4 19 8.0 S 9 9 5 5 1020.2 - 0.0
20/08:00pm 14.2 9.8 -10.5 17 8.3 SSW 7 9 4 5 1019.9 1019.6 0.0
20/07:30pm 16.5 11.7 -10.2 15 9.4 S 9 9 5 5 1019.5 - 0.0
20/07:00pm 17.9 13.1 -9.9 14 9.9 SSE 9 11 5 6 1019.3 1019.0 0.0
20/06:30pm 18.9 14.1 -10.1 13 10.5 SSE 9 11 5 6 1018.9 - 0.0
20/06:00pm 20.9 16.6 -9.5 12 11.4 SSE 7 11 4 6 1018.4 1018.0 0.0
20/05:30pm 22.2 17.6 -8.5 12 11.9 SE 9 13 5 7 1018.2 - 0.0
20/05:00pm 22.6 18.0 -8.2 12 12.0 SSW 9 15 5 8 1018.2 1017.8 0.0
20/04:30pm 23.2 18.5 -8.9 11 12.5 S 9 17 5 9 1018.2 - 0.0
20/04:00pm 23.2 19.2 -7.7 12 12.2 E 6 15 3 8 1018.2 1017.8 0.0
20/03:30pm 22.6 17.6 -8.2 12 12.0 S 11 17 6 9 1018.3 - 0.0
20/03:00pm 23.3 18.7 -7.7 12 12.3 SE 9 17 5 9 1018.5 1018.1 0.0
20/02:30pm 22.5 17.9 -8.3 12 12.0 SSE 9 15 5 8 1018.8 - 0.0
20/02:00pm 21.7 16.7 -7.9 13 11.5 S 11 20 6 11 1019.1 1018.7 0.0
20/01:30pm 22.0 17.1 -6.7 14 11.5 NE 11 17 6 9 1019.6 - 0.0
20/01:00pm 21.3 16.8 -7.2 14 11.2 ESE 9 17 5 9 1020.0 1019.7 0.0
20/12:30pm 20.5 16.5 -6.1 16 10.6 ESE 7 15 4 8 1020.7 - 0.0
20/12:00pm 19.4 15.0 -5.5 18 9.9 E 9 15 5 8 1021.3 1020.9 0.0
20/11:30am 19.0 14.7 -4.4 20 9.5 E 9 17 5 9 1021.8 - 0.0
20/11:00am 16.8 11.7 -5.0 22 8.5 E 13 20 7 11 1022.2 1021.8 0.0
20/10:30am 15.7 10.3 -4.8 24 8.0 E 15 20 8 11 1022.5 - 0.0
20/10:00am 14.1 7.8 -5.6 25 7.4 E 19 26 10 14 1022.5 1022.2 0.0
20/09:30am 13.4 7.5 -5.2 27 7.0 E 17 24 9 13 1022.4 - 0.0
20/09:00am 11.5 6.4 -5.4 30 6.2 E 13 17 7 9 1022.4 1022.1 0.0
20/08:30am 7.6 4.3 -8.8 30 5.3 SSE 2 7 1 4 1022.2 - 0.0
20/08:00am 5.6 1.5 -8.3 36 4.4 S 6 7 3 4 1022.0 1021.6 0.0
20/07:30am 3.1 -0.4 -10.5 36 4.1 ENE 2 7 1 4 1021.9 - 0.0
20/07:00am 3.8 -0.4 -9.5 37 4.2 ENE 6 9 3 5 1021.5 1021.1 0.0
20/06:30am 4.0 0.0 -8.0 41 3.7 ENE 6 7 3 4 1021.2 - 0.0
20/06:00am 4.4 0.1 -9.0 37 4.1 E 7 9 4 5 1021.0 1020.6 0.0
20/05:30am 4.9 0.5 -10.0 33 4.5 ESE 7 9 4 5 1020.9 - 0.0
20/05:00am 5.1 0.4 -9.8 33 4.5 ESE 9 9 5 5 1020.7 1020.3 0.0
20/04:30am 5.6 0.8 -10.6 30 4.8 ESE 9 9 5 5 1020.6 - 0.0
20/04:00am 6.5 1.4 -9.8 30 5.0 SE 11 11 6 6 1020.5 1020.1 0.0
20/03:30am 7.6 2.5 -9.3 29 5.4 ESE 11 13 6 7 1020.6 - 0.0
20/03:00am 7.2 2.8 -9.6 29 5.2 SE 7 11 4 6 1020.6 1020.2 0.0
20/02:30am 6.7 2.3 -10.0 29 5.1 ESE 7 9 4 5 1020.8 - 0.0
20/02:00am 8.0 2.9 -9.8 27 5.6 SE 11 13 6 7 1020.7 1020.3 0.0
20/01:30am 9.4 3.9 -9.6 25 6.1 SE 13 15 7 8 1021.0 - 0.0
20/01:00am 10.3 4.4 -9.4 24 6.5 SE 15 17 8 9 1021.1 1020.7 0.0
20/12:30am 10.1 4.6 -9.5 24 6.4 SE 13 15 7 8 1021.3 - 0.0
20/12:00am 9.5 4.0 -10.0 24 6.2 SE 13 15 7 8 1021.6 1021.2 0.0
 
Date/Time
EST
Temp
°C
App
Temp
°C
Dew
Point
Rel
Hum
%
Delta-T
°C
Wind Press
QNH
hPa
Press
MSL
hPa
Rain
since 9 am
mm
Dir
 
Spd
km/h
Gust
km/h
Spd
kts
Gust
kts
19/11:30pm 9.5 5.1 -10.0 24 6.3 SE 7 11 4 6 1022.0 - 0.0
19/11:00pm 9.9 5.1 -10.2 23 6.4 SSE 9 9 5 5 1022.1 1021.7 0.0
19/10:30pm 11.2 6.1 -9.7 22 6.9 SSE 11 15 6 8 1022.1 - 0.0
19/10:00pm 12.0 6.6 -9.0 22 7.1 SE 13 15 7 8 1021.7 1021.3 0.0
19/09:30pm 12.5 7.0 -9.2 21 7.4 SSE 13 17 7 9 1021.6 - 0.0
19/09:00pm 12.7 7.3 -8.4 22 7.3 SE 13 17 7 9 1021.3 1020.9 0.0
19/08:30pm 12.3 6.9 -8.8 22 7.2 SE 13 15 7 8 1021.2 - 0.0
19/08:00pm 12.4 7.7 -9.3 21 7.3 SE 9 11 5 6 1021.1 1020.7 0.0
19/07:30pm 14.2 9.1 -9.1 19 8.1 SSE 11 13 6 7 1021.0 - 0.0
19/07:00pm 14.8 10.1 -9.3 18 8.4 SE 9 11 5 6 1020.7 1020.3 0.0
19/06:30pm 16.9 12.2 -9.0 16 9.4 ESE 9 11 5 6 1020.1 - 0.0
19/06:00pm 19.2 13.8 -8.9 14 10.4 ESE 13 17 7 9 1019.8 1019.5 0.0
19/05:30pm 20.3 14.1 -9.0 13 11.0 ESE 17 24 9 13 1019.4 - 0.0

Other Formats:

Comma delimited format used in spreadsheet applications
http://www.bom.gov.au/fwo/IDQ60801/IDQ60801.94336.axf

JavaScript Object Notation format (JSON) in row-major order
http://www.bom.gov.au/fwo/IDQ60801/IDQ60801.94336.json